Time;durP1;ratioP1;P1;durP2;ratioP2;P2;SDS_P1;SDS_P2;PMS_P1;PMS_P2;Temp;Humidity;BMP_temperature;BMP_pressure;BME280_temperature;BME280_humidity;BME280_pressure;Samples;Min_cycle;Max_cycle;Signal;HPM_P1;HPM_P2
2021/12/06 00:01:19;;;;;;;37.83;25.63;;;;;;;;;;4916551;28;100178;-70
2021/12/06 00:04:04;;;;;;;37.03;25.10;;;;;;;;;;4916491;28;99999;-70
2021/12/06 00:06:33;;;;;;;39.33;25.40;;;;;;;;;;4916711;28;98285;-70
2021/12/06 00:09:03;;;;;;;46.47;26.13;;;;;;;;;;4916597;28;99514;-70
2021/12/06 00:11:31;;;;;;;42.40;26.17;;;;;;;;;;4916291;28;99263;-70
2021/12/06 00:13:57;;;;;;;36.85;25.25;;;;;;;;;;4916326;28;98283;-71
2021/12/06 00:16:24;;;;;;;41.78;25.52;;;;;;;;;;4917018;28;99394;-70
2021/12/06 00:18:51;;;;;;;44.53;25.40;;;;;;;;;;4915606;28;99229;-71
2021/12/06 00:21:18;;;;;;;42.92;25.45;;;;;;;;;;4919650;28;98278;-71
2021/12/06 00:23:44;;;;;;;38.55;25.70;;;;;;;;;;4915503;28;100568;-71
2021/12/06 00:26:11;;;;;;;45.97;26.15;;;;;;;;;;4916396;28;98432;-71
2021/12/06 00:28:38;;;;;;;40.53;25.90;;;;;;;;;;4916138;28;99044;-72
2021/12/06 00:31:04;;;;;;;44.03;26.63;;;;;;;;;;4898656;28;100864;-71
2021/12/06 00:33:31;;;;;;;38.58;25.00;;;;;;;;;;4898776;28;98423;-71
2021/12/06 00:36:04;;;;;;;41.83;25.52;;;;;;;;;;4898097;28;101239;-71
2021/12/06 00:38:30;;;;;;;;;;;;;;;;;;4916202;28;99559;-72
2021/12/06 00:40:57;;;;;;;43.63;25.67;;;;;;;;;;4916511;28;119772;-71
2021/12/06 00:43:23;;;;;;;39.70;25.83;;;;;;;;;;4919046;28;99657;-71
2021/12/06 00:45:50;;;;;;;42.55;25.52;;;;;;;;;;4915657;28;98346;-71
2021/12/06 00:48:16;;;;;;;43.90;26.85;;;;;;;;;;4915099;28;100351;-70
2021/12/06 00:50:43;;;;;;;47.03;27.83;;;;;;;;;;4915708;28;100130;-71
2021/12/06 00:53:10;;;;;;;47.10;27.92;;;;;;;;;;4898741;28;98421;-71
2021/12/06 00:55:36;;;;;;;45.95;28.40;;;;;;;;;;4899058;28;99184;-70
2021/12/06 00:58:03;;;;;;;48.20;28.48;;;;;;;;;;4915527;28;99644;-71
2021/12/06 01:00:34;;;;;;;49.75;28.70;;;;;;;;;;4915547;28;98577;-70
2021/12/06 01:03:05;;;;;;;52.72;29.45;;;;;;;;;;4901483;28;101403;-71
2021/12/06 01:05:32;;;;;;;54.00;29.13;;;;;;;;;;4899133;28;97837;-71
2021/12/06 01:07:58;;;;;;;53.63;28.80;;;;;;;;;;4915696;28;98290;-70
2021/12/06 01:10:25;;;;;;;56.40;29.92;;;;;;;;;;4915362;28;99483;-70
2021/12/06 01:12:55;;;;;;;53.97;28.65;;;;;;;;;;4914315;28;99474;-71
2021/12/06 01:15:21;;;;;;;51.83;29.17;;;;;;;;;;4915628;28;100299;-71
2021/12/06 01:17:48;;;;;;;60.15;29.63;;;;;;;;;;4915097;28;99797;-71
2021/12/06 01:20:19;;;;;;;54.15;28.75;;;;;;;;;;4898324;28;98433;-71
2021/12/06 01:22:59;;;;;;;;;;;;;;;;;;4898688;28;102091;-71
2021/12/06 01:25:45;;;;;;;58.95;28.08;;;;;;;;;;4901457;28;101780;-70
2021/12/06 01:28:36;;;;;;;50.85;28.20;;;;;;;;;;4898043;28;101472;-70
2021/12/06 01:31:12;;;;;;;54.17;27.60;;;;;;;;;;4898367;28;100489;-71
2021/12/06 01:39:25;;;;;;;48.70;27.23;;;;;;;;;;4882349;28;102474;-71
2021/12/06 01:41:57;;;;;;;59.28;29.90;;;;;;;;;;4898146;28;98395;-70
2021/12/06 01:44:24;;;;;;;50.63;29.02;;;;;;;;;;4897747;28;101173;-70
2021/12/06 01:47:02;;;;;;;53.63;28.38;;;;;;;;;;4897526;28;100792;-70
2021/12/06 01:49:31;;;;;;;58.80;28.65;;;;;;;;;;4900992;28;98399;-70
2021/12/06 01:52:00;;;;;;;55.63;29.30;;;;;;;;;;4897348;28;101797;-71
2021/12/06 01:54:28;;;;;;;51.78;28.05;;;;;;;;;;4882465;28;98490;-71
2021/12/06 01:56:54;;;;;;;55.65;27.67;;;;;;;;;;4915014;28;99667;-71
2021/12/06 01:59:22;;;;;;;53.40;27.52;;;;;;;;;;4876582;28;102147;-72
2021/12/06 02:01:49;;;;;;;52.03;27.25;;;;;;;;;;4878526;28;98411;-71
2021/12/06 02:04:16;;;;;;;56.60;28.90;;;;;;;;;;4878199;28;101596;-71
2021/12/06 02:06:43;;;;;;;55.33;28.85;;;;;;;;;;4878223;28;101821;-70
2021/12/06 02:09:11;;;;;;;51.75;27.10;;;;;;;;;;4895349;28;98491;-71
2021/12/06 02:11:39;;;;;;;56.22;27.75;;;;;;;;;;4898398;28;99316;-70
2021/12/06 02:14:25;;;;;;;48.45;27.80;;;;;;;;;;4888400;28;99402;-70
2021/12/06 02:17:39;;;;;;;47.15;26.88;;;;;;;;;;4894279;28;101659;-70
2021/12/06 02:19:47;;;;;;;55.05;27.27;;;;;;;;;;4887996;28;101647;-71
2021/12/06 02:22:20;;;;;;;52.17;27.33;;;;;;;;;;4878804;28;97789;-71
2021/12/06 02:24:46;;;;;;;54.20;28.05;;;;;;;;;;4910290;28;100026;-70
2021/12/06 02:27:13;;;;;;;58.08;28.10;;;;;;;;;;4893909;28;102003;-70
2021/12/06 02:29:40;;;;;;;45.65;27.00;;;;;;;;;;4894775;28;99187;-71
2021/12/06 02:32:10;;;;;;;49.85;28.45;;;;;;;;;;4893821;28;102340;-70
2021/12/06 02:34:39;;;;;;;53.90;28.05;;;;;;;;;;4896855;28;102155;-70
2021/12/06 02:37:06;;;;;;;46.83;27.15;;;;;;;;;;4895147;28;98875;-70
2021/12/06 02:39:33;;;;;;;58.75;27.98;;;;;;;;;;4893841;28;101706;-70
2021/12/06 02:42:00;;;;;;;54.53;27.55;;;;;;;;;;4895108;28;98512;-70
2021/12/06 02:44:27;;;;;;;48.35;25.88;;;;;;;;;;4895139;28;99409;-70
2021/12/06 02:46:54;;;;;;;62.60;29.15;;;;;;;;;;4894808;28;98932;-70
2021/12/06 02:49:22;;;;;;;56.08;29.08;;;;;;;;;;4894808;28;98421;-70
2021/12/06 02:51:51;;;;;;;62.60;29.17;;;;;;;;;;4895041;28;99426;-70
2021/12/06 02:54:21;;;;;;;57.15;29.38;;;;;;;;;;4892999;28;102775;-70
2021/12/06 02:57:32;;;;;;;62.08;30.35;;;;;;;;;;4896492;28;99975;-70
2021/12/06 02:59:43;;;;;;;55.70;28.33;;;;;;;;;;4891344;28;101630;-70
2021/12/06 03:02:11;;;;;;;63.95;30.00;;;;;;;;;;4893503;28;98448;-70
2021/12/06 03:04:39;;;;;;;59.75;29.70;;;;;;;;;;4893811;28;100804;-70
2021/12/06 03:07:08;;;;;;;60.08;28.98;;;;;;;;;;4893288;28;102010;-70
2021/12/06 03:09:37;;;;;;;56.53;29.02;;;;;;;;;;4894851;28;98281;-70
2021/12/06 03:12:06;;;;;;;56.75;28.42;;;;;;;;;;4893904;28;102454;-70
2021/12/06 03:14:36;;;;;;;59.00;29.23;;;;;;;;;;4893946;28;99876;-70
2021/12/06 03:17:08;;;;;;;61.25;28.67;;;;;;;;;;4880750;28;98531;-70
2021/12/06 03:19:35;;;;;;;59.03;30.70;;;;;;;;;;4876843;28;102907;-70
2021/12/06 03:22:02;;;;;;;58.17;30.38;;;;;;;;;;4894578;28;98662;-71
2021/12/06 03:24:29;;;;;;;61.28;28.45;;;;;;;;;;4877360;28;101256;-70
2021/12/06 03:26:56;;;;;;;58.67;29.80;;;;;;;;;;4877139;28;100565;-70
2021/12/06 03:29:23;;;;;;;59.90;30.00;;;;;;;;;;4877274;28;98537;-70
2021/12/06 03:31:50;;;;;;;54.22;28.42;;;;;;;;;;4877480;28;101257;-71
2021/12/06 03:34:18;;;;;;;59.80;30.58;;;;;;;;;;4876997;28;102490;-70
2021/12/06 03:36:47;;;;;;;61.78;29.20;;;;;;;;;;4877735;28;97786;-71
2021/12/06 03:39:23;;;;;;;55.80;28.65;;;;;;;;;;4880104;28;101233;-70
2021/12/06 03:41:51;;;;;;;56.25;29.00;;;;;;;;;;4877455;28;98441;-70
2021/12/06 03:44:20;;;;;;;62.47;29.40;;;;;;;;;;4876846;28;101185;-70
2021/12/06 03:46:50;;;;;;;62.80;30.98;;;;;;;;;;4876993;28;102203;-69
2021/12/06 03:49:17;;;;;;;64.10;30.13;;;;;;;;;;4893767;28;100232;-71
2021/12/06 03:51:47;;;;;;;59.38;28.48;;;;;;;;;;4877072;28;101652;-71
2021/12/06 03:54:21;;;;;;;59.47;29.65;;;;;;;;;;4876887;28;101963;-69
2021/12/06 03:56:48;;;;;;;57.60;28.27;;;;;;;;;;4877202;28;99902;-71
2021/12/06 03:59:15;;;;;;;57.03;28.58;;;;;;;;;;4877158;28;102578;-71
2021/12/06 04:01:42;;;;;;;60.25;28.98;;;;;;;;;;4880529;28;100494;-71
2021/12/06 04:04:10;;;;;;;56.58;29.15;;;;;;;;;;4876519;28;101191;-71
2021/12/06 04:06:38;;;;;;;60.45;29.23;;;;;;;;;;4876736;28;100671;-71
2021/12/06 04:09:04;;;;;;;61.30;29.98;;;;;;;;;;4876491;28;99415;-71
2021/12/06 04:11:32;;;;;;;63.25;29.88;;;;;;;;;;4896725;28;100760;-71
2021/12/06 04:13:59;;;;;;;57.70;30.60;;;;;;;;;;4888638;28;101471;-71
2021/12/06 04:16:27;;;;;;;58.50;29.05;;;;;;;;;;4897004;28;98458;-71
2021/12/06 04:18:56;;;;;;;61.40;27.80;;;;;;;;;;4895910;28;101369;-70
2021/12/06 04:21:24;;;;;;;62.17;30.48;;;;;;;;;;4895741;28;101362;-71
2021/12/06 04:23:51;;;;;;;63.50;29.83;;;;;;;;;;4899336;28;98439;-71
2021/12/06 04:26:19;;;;;;;61.85;30.55;;;;;;;;;;4896135;28;100548;-70
2021/12/06 04:28:58;;;;;;;66.72;30.88;;;;;;;;;;4895924;28;98493;-71
2021/12/06 04:31:26;;;;;;;66.10;29.50;;;;;;;;;;4895783;28;101576;-71
2021/12/06 04:33:53;;;;;;;69.57;31.38;;;;;;;;;;4895071;28;102888;-70
2021/12/06 04:36:37;;;;;;;52.70;28.02;;;;;;;;;;4896301;28;98562;-71
2021/12/06 04:39:05;;;;;;;64.40;30.70;;;;;;;;;;4895540;28;101903;-71
2021/12/06 04:41:32;;;;;;;63.38;30.13;;;;;;;;;;4894959;28;103074;-71
2021/12/06 04:43:58;;;;;;;68.15;30.35;;;;;;;;;;4895712;28;98828;-72
2021/12/06 04:46:25;;;;;;;70.38;31.50;;;;;;;;;;4899756;28;99610;-71
2021/12/06 04:48:51;;;;;;;67.32;30.65;;;;;;;;;;4895330;28;98474;-71
2021/12/06 04:51:18;;;;;;;72.72;30.73;;;;;;;;;;4895910;28;100924;-70
2021/12/06 04:53:44;;;;;;;66.90;30.42;;;;;;;;;;4895246;28;102115;-71
2021/12/06 04:56:23;;;;;;;67.03;31.38;;;;;;;;;;4896370;28;98494;-71
2021/12/06 04:58:56;;;;;;;66.10;30.23;;;;;;;;;;4895111;28;102167;-71
2021/12/06 05:01:28;;;;;;;64.50;30.73;;;;;;;;;;4894932;28;102375;-71
2021/12/06 05:03:58;;;;;;;70.00;31.80;;;;;;;;;;4895368;28;98409;-71
2021/12/06 05:06:27;;;;;;;77.45;32.63;;;;;;;;;;4882492;28;101078;-71
2021/12/06 05:08:58;;;;;;;73.55;32.20;;;;;;;;;;4895269;28;98640;-71
2021/12/06 05:11:26;;;;;;;66.15;31.98;;;;;;;;;;4895221;28;101471;-71
2021/12/06 05:13:54;;;;;;;79.07;32.70;;;;;;;;;;4878770;28;102702;-71
2021/12/06 05:16:24;;;;;;;77.53;31.98;;;;;;;;;;4895862;28;97663;-71
2021/12/06 05:18:53;;;;;;;72.47;31.95;;;;;;;;;;4895329;28;101668;-71
2021/12/06 05:21:20;;;;;;;67.65;31.65;;;;;;;;;;4894039;28;102493;-70
2021/12/06 05:23:46;;;;;;;69.25;31.50;;;;;;;;;;4895761;28;99202;-70
2021/12/06 05:26:14;;;;;;;74.63;32.78;;;;;;;;;;4895291;28;102708;-70
2021/12/06 05:28:43;;;;;;;71.40;30.88;;;;;;;;;;4897937;28;102146;-71
2021/12/06 05:31:17;;;;;;;74.32;32.35;;;;;;;;;;4894934;28;101246;-70
2021/12/06 05:33:46;;;;;;;73.10;32.13;;;;;;;;;;4894298;28;102477;-75
2021/12/06 05:36:14;;;;;;;77.70;32.58;;;;;;;;;;4896233;28;98395;-71
2021/12/06 05:38:40;;;;;;;75.70;33.83;;;;;;;;;;4896005;28;99718;-70
2021/12/06 05:41:06;;;;;;;79.45;34.42;;;;;;;;;;4896165;28;99211;-70
2021/12/06 05:43:33;;;;;;;75.57;33.08;;;;;;;;;;4896074;28;98402;-72
2021/12/06 05:46:00;;;;;;;72.80;33.80;;;;;;;;;;4896180;28;99626;-71
2021/12/06 05:48:27;;;;;;;84.38;35.97;;;;;;;;;;4893640;28;101821;-71
2021/12/06 05:50:53;;;;;;;76.78;34.08;;;;;;;;;;4899254;28;98390;-71
2021/12/06 05:53:20;;;;;;;75.22;33.50;;;;;;;;;;4896079;28;99185;-71
2021/12/06 05:55:46;;;;;;;74.63;33.08;;;;;;;;;;4895776;28;98434;-71
2021/12/06 05:58:14;;;;;;;79.30;33.70;;;;;;;;;;4895798;28;98569;-72
2021/12/06 06:00:42;;;;;;;70.72;32.22;;;;;;;;;;4895414;28;99635;-70
2021/12/06 06:03:09;;;;;;;75.28;34.10;;;;;;;;;;4895551;28;98516;-70
2021/12/06 06:05:36;;;;;;;70.10;32.28;;;;;;;;;;4896265;28;99418;-71
2021/12/06 06:08:03;;;;;;;75.47;34.63;;;;;;;;;;4894043;28;100554;-71
2021/12/06 06:10:32;;;;;;;75.30;33.95;;;;;;;;;;4895553;28;98441;-72
2021/12/06 06:12:59;;;;;;;82.35;34.88;;;;;;;;;;4897725;28;99503;-71
2021/12/06 06:15:28;;;;;;;69.15;33.58;;;;;;;;;;4895010;28;98483;-72
2021/12/06 06:17:57;;;;;;;77.47;33.92;;;;;;;;;;4895481;28;99794;-71
2021/12/06 06:20:26;;;;;;;78.60;34.50;;;;;;;;;;4895204;28;99777;-74
2021/12/06 06:22:52;;;;;;;79.35;34.80;;;;;;;;;;4895503;28;98430;-71
2021/12/06 06:25:19;;;;;;;66.75;33.45;;;;;;;;;;4895387;28;99569;-71
2021/12/06 06:27:45;;;;;;;75.60;33.67;;;;;;;;;;4895234;28;99655;-71
2021/12/06 06:30:12;;;;;;;70.95;33.03;;;;;;;;;;4895248;28;97757;-71
2021/12/06 06:32:39;;;;;;;77.22;34.10;;;;;;;;;;4894525;28;98666;-71
2021/12/06 06:35:06;;;;;;;68.13;32.28;;;;;;;;;;4898194;28;99818;-71
2021/12/06 06:37:32;;;;;;;70.20;32.92;;;;;;;;;;4894656;28;100022;-71
2021/12/06 06:39:59;;;;;;;70.88;34.05;;;;;;;;;;4895053;28;99217;-70
2021/12/06 06:42:27;;;;;;;71.13;31.67;;;;;;;;;;4895001;28;98493;-71
2021/12/06 06:44:54;;;;;;;79.93;34.83;;;;;;;;;;4895065;28;99545;-71
2021/12/06 06:47:20;;;;;;;80.40;34.70;;;;;;;;;;4894822;28;100082;-71
2021/12/06 06:49:47;;;;;;;80.57;35.05;;;;;;;;;;4894895;28;98451;-71
2021/12/06 06:52:18;;;;;;;78.40;35.88;;;;;;;;;;4894966;28;99097;-71
2021/12/06 06:54:45;;;;;;;78.75;37.10;;;;;;;;;;4895177;28;98395;-71
2021/12/06 06:57:11;;;;;;;78.07;33.35;;;;;;;;;;4880715;28;98536;-71
2021/12/06 06:59:38;;;;;;;77.45;36.55;;;;;;;;;;4894662;28;99892;-72
2021/12/06 07:02:04;;;;;;;81.82;36.28;;;;;;;;;;4894474;28;99240;-71
2021/12/06 07:04:31;;;;;;;77.20;35.78;;;;;;;;;;4894885;28;100510;-70
2021/12/06 07:06:57;;;;;;;75.28;35.85;;;;;;;;;;4894487;28;99233;-71
2021/12/06 07:09:24;;;;;;;77.75;35.83;;;;;;;;;;4894989;28;98418;-73
2021/12/06 07:11:51;;;;;;;72.88;34.65;;;;;;;;;;4894355;28;99968;-76
2021/12/06 07:14:18;;;;;;;75.07;35.20;;;;;;;;;;4893985;28;99667;-75
2021/12/06 07:16:46;;;;;;;74.78;35.35;;;;;;;;;;4897877;28;98395;-75
2021/12/06 07:19:12;;;;;;;72.18;33.30;;;;;;;;;;4895148;28;98828;-71
2021/12/06 07:21:55;;;;;;;73.13;34.83;;;;;;;;;;4894566;28;98481;-72
2021/12/06 07:24:22;;;;;;;80.18;35.40;;;;;;;;;;4894224;28;98972;-70
2021/12/06 07:26:49;;;;;;;82.78;37.35;;;;;;;;;;4893604;28;100423;-70
2021/12/06 07:29:15;;;;;;;79.07;36.15;;;;;;;;;;4894578;28;98363;-70
2021/12/06 07:31:41;;;;;;;79.88;36.45;;;;;;;;;;4894470;28;99750;-71
2021/12/06 07:34:08;;;;;;;76.50;35.33;;;;;;;;;;4894006;28;98749;-72
2021/12/06 07:36:34;;;;;;;74.88;35.53;;;;;;;;;;4894571;28;98348;-71
2021/12/06 07:39:01;;;;;;;73.45;35.60;;;;;;;;;;4896830;28;99601;-71
2021/12/06 07:41:28;;;;;;;71.60;34.15;;;;;;;;;;4894465;28;98460;-70
2021/12/06 07:43:56;;;;;;;73.72;36.10;;;;;;;;;;4895530;28;98724;-70
2021/12/06 07:46:23;;;;;;;70.65;34.08;;;;;;;;;;4897109;28;100800;-70
2021/12/06 07:48:52;;;;;;;78.43;34.67;;;;;;;;;;4897562;28;98498;-71
2021/12/06 07:51:20;;;;;;;78.65;34.67;;;;;;;;;;4896665;28;99465;-71
2021/12/06 07:53:46;;;;;;;79.07;35.72;;;;;;;;;;4897109;28;99702;-71
2021/12/06 07:56:13;;;;;;;74.88;34.50;;;;;;;;;;4897501;28;98367;-70
2021/12/06 07:58:39;;;;;;;76.28;36.08;;;;;;;;;;4897498;28;100163;-71
2021/12/06 08:01:05;;;;;;;70.18;34.20;;;;;;;;;;4900246;28;100526;-72
2021/12/06 08:03:33;;;;;;;78.82;36.30;;;;;;;;;;4897299;28;99494;-70
2021/12/06 08:06:00;;;;;;;78.72;36.72;;;;;;;;;;4896695;28;99628;-70
2021/12/06 08:08:28;;;;;;;74.50;35.10;;;;;;;;;;4897824;28;97624;-71
2021/12/06 08:10:56;;;;;;;71.82;35.05;;;;;;;;;;4897600;28;99184;-70
2021/12/06 08:13:25;;;;;;;66.10;33.60;;;;;;;;;;4896631;28;99096;-70
2021/12/06 08:15:52;;;;;;;81.93;36.30;;;;;;;;;;4896492;28;99150;-71
2021/12/06 08:18:18;;;;;;;79.10;36.60;;;;;;;;;;4897266;28;99956;-71
2021/12/06 08:20:45;;;;;;;76.43;36.47;;;;;;;;;;4896477;28;99404;-70
2021/12/06 08:23:11;;;;;;;75.05;34.83;;;;;;;;;;4900665;28;98464;-71
2021/12/06 08:25:38;;;;;;;74.97;33.60;;;;;;;;;;4896670;28;99045;-71
2021/12/06 08:28:04;;;;;;;69.97;33.35;;;;;;;;;;4896867;28;98418;-70
2021/12/06 08:30:31;;;;;;;69.72;35.58;;;;;;;;;;4896961;28;100118;-71
2021/12/06 08:32:59;;;;;;;80.60;35.55;;;;;;;;;;4897178;28;98803;-71
2021/12/06 08:35:34;;;;;;;72.20;35.47;;;;;;;;;;4897017;28;98537;-71
2021/12/06 08:38:01;;;;;;;79.80;36.72;;;;;;;;;;4896719;28;98992;-71
2021/12/06 08:40:28;;;;;;;75.25;36.22;;;;;;;;;;4896091;28;100572;-70
2021/12/06 08:42:55;;;;;;;80.03;38.03;;;;;;;;;;4896888;28;98512;-71
2021/12/06 08:45:22;;;;;;;77.68;36.80;;;;;;;;;;4899774;28;99323;-71
2021/12/06 08:47:49;;;;;;;71.55;36.13;;;;;;;;;;4896321;28;99013;-71
2021/12/06 08:50:19;;;;;;;78.80;35.33;;;;;;;;;;4879998;28;99473;-71
2021/12/06 08:52:46;;;;;;;73.03;36.63;;;;;;;;;;4896288;28;99859;-71
2021/12/06 08:55:13;;;;;;;76.53;37.17;;;;;;;;;;4885736;28;99928;-70
2021/12/06 08:57:40;;;;;;;78.85;36.58;;;;;;;;;;4886000;28;99773;-71
2021/12/06 09:00:11;;;;;;;75.60;35.80;;;;;;;;;;4878787;28;102204;-72
2021/12/06 09:02:38;;;;;;;70.40;35.67;;;;;;;;;;4896719;28;98449;-71
2021/12/06 09:05:24;;;;;;;73.22;36.47;;;;;;;;;;4896086;28;99680;-71
2021/12/06 09:07:51;;;;;;;79.82;37.40;;;;;;;;;;4899570;28;99943;-71
2021/12/06 09:10:17;;;;;;;90.60;37.60;;;;;;;;;;4896002;28;99509;-71
2021/12/06 09:12:44;;;;;;;72.25;35.88;;;;;;;;;;4895364;28;99429;-71
2021/12/06 09:15:12;;;;;;;77.72;36.88;;;;;;;;;;4896428;28;98350;-71
2021/12/06 09:17:45;;;;;;;79.72;36.42;;;;;;;;;;4896254;28;99939;-71
2021/12/06 09:20:13;;;;;;;76.03;37.67;;;;;;;;;;4895760;28;99728;-71
2021/12/06 09:22:40;;;;;;;71.45;36.47;;;;;;;;;;4896657;28;97665;-71
2021/12/06 09:25:08;;;;;;;76.10;37.15;;;;;;;;;;4896347;28;98791;-72
2021/12/06 09:27:34;;;;;;;77.97;38.28;;;;;;;;;;4898779;28;99115;-71
2021/12/06 09:30:02;;;;;;;70.40;36.17;;;;;;;;;;4895672;28;99618;-71
2021/12/06 09:32:28;;;;;;;77.50;36.53;;;;;;;;;;4895495;28;99757;-71
2021/12/06 09:34:58;;;;;;;75.28;37.85;;;;;;;;;;4895910;28;98368;-72
2021/12/06 09:37:25;;;;;;;71.45;35.78;;;;;;;;;;4895974;28;99463;-73
2021/12/06 09:39:52;;;;;;;77.10;37.20;;;;;;;;;;4895243;28;98801;-70
2021/12/06 09:42:19;;;;;;;72.53;37.20;;;;;;;;;;4895948;28;98306;-70
2021/12/06 09:44:46;;;;;;;74.30;37.08;;;;;;;;;;4896002;28;99029;-71
2021/12/06 09:47:12;;;;;;;72.47;36.70;;;;;;;;;;4896044;28;98925;-70
2021/12/06 09:49:39;;;;;;;70.68;36.53;;;;;;;;;;4899225;28;99506;-70
2021/12/06 09:52:06;;;;;;;68.85;36.67;;;;;;;;;;4895191;28;100415;-70
2021/12/06 09:54:37;;;;;;;71.70;36.95;;;;;;;;;;4894950;28;99309;-70
2021/12/06 09:57:04;;;;;;;66.93;35.77;;;;;;;;;;4895740;28;100376;-70
2021/12/06 09:59:31;;;;;;;63.38;33.80;;;;;;;;;;4895317;28;100070;-71
2021/12/06 10:02:02;;;;;;;74.70;35.92;;;;;;;;;;4895547;28;98478;-73
2021/12/06 10:04:31;;;;;;;73.13;36.47;;;;;;;;;;4895939;28;99773;-71
2021/12/06 10:06:58;;;;;;;73.03;36.60;;;;;;;;;;4894369;28;100058;-70
2021/12/06 10:09:24;;;;;;;78.55;37.67;;;;;;;;;;4878393;28;98454;-69
2021/12/06 10:11:54;;;;;;;74.15;35.28;;;;;;;;;;4898886;28;100013;-72
2021/12/06 10:14:21;;;;;;;75.68;36.17;;;;;;;;;;4895287;28;99069;-72
2021/12/06 10:16:47;;;;;;;69.15;34.80;;;;;;;;;;4895438;28;98899;-71
2021/12/06 10:19:15;;;;;;;81.82;35.17;;;;;;;;;;4894663;28;99790;-71
2021/12/06 10:21:41;;;;;;;73.65;36.35;;;;;;;;;;4895072;28;98323;-71
2021/12/06 10:24:13;;;;;;;76.45;37.05;;;;;;;;;;4895210;28;98986;-71
2021/12/06 10:26:40;;;;;;;80.75;38.30;;;;;;;;;;4895020;28;99539;-71
2021/12/06 10:29:08;;;;;;;84.10;36.85;;;;;;;;;;4895209;28;98388;-71
2021/12/06 10:31:38;;;;;;;83.45;38.22;;;;;;;;;;4895152;28;99454;-71
2021/12/06 10:34:05;;;;;;;89.03;38.53;;;;;;;;;;4897939;28;99627;-70
2021/12/06 10:36:32;;;;;;;102.53;37.15;;;;;;;;;;4895725;28;99717;-71
2021/12/06 10:39:02;;;;;;;100.78;41.60;;;;;;;;;;4894788;28;100171;-71
2021/12/06 10:41:31;;;;;;;95.38;38.92;;;;;;;;;;4895160;28;99097;-71
2021/12/06 10:44:04;;;;;;;94.70;37.17;;;;;;;;;;4894636;28;99021;-71
2021/12/06 10:46:31;;;;;;;105.82;41.67;;;;;;;;;;4894404;28;99835;-72
2021/12/06 10:48:59;;;;;;;93.32;41.92;;;;;;;;;;4894794;28;98499;-71
2021/12/06 10:51:26;;;;;;;99.65;41.97;;;;;;;;;;4894959;28;99502;-70
2021/12/06 10:54:04;;;;;;;94.88;42.72;;;;;;;;;;4894624;28;99626;-70
2021/12/06 10:56:59;;;;;;;89.85;40.10;;;;;;;;;;4898200;28;98466;-70
2021/12/06 10:59:22;;;;;;;93.90;40.10;;;;;;;;;;4893632;28;102773;-70
2021/12/06 11:01:50;;;;;;;92.47;40.67;;;;;;;;;;4895426;28;98588;-70
2021/12/06 11:04:18;;;;;;;104.63;43.25;;;;;;;;;;4894927;28;98360;-70
2021/12/06 11:06:46;;;;;;;102.53;43.40;;;;;;;;;;4894637;28;99656;-71
2021/12/06 11:09:14;;;;;;;108.75;44.28;;;;;;;;;;4894636;28;99211;-71
2021/12/06 11:11:42;;;;;;;99.95;39.65;;;;;;;;;;4894289;28;100378;-70
2021/12/06 11:14:10;;;;;;;105.47;42.97;;;;;;;;;;4908326;28;99829;-72
2021/12/06 11:16:38;;;;;;;107.10;43.08;;;;;;;;;;4913703;28;98404;-70
2021/12/06 11:19:09;;;;;;;109.97;43.20;;;;;;;;;;4917698;28;98939;-72
2021/12/06 11:21:43;;;;;;;111.55;42.42;;;;;;;;;;4917234;28;98317;-71
2021/12/06 11:24:12;;;;;;;116.95;43.05;;;;;;;;;;4899382;28;100643;-71
2021/12/06 11:26:41;;;;;;;101.90;39.97;;;;;;;;;;4917270;28;99180;-70
2021/12/06 11:29:12;;;;;;;99.18;39.30;;;;;;;;;;4917122;28;98415;-70
2021/12/06 11:31:41;;;;;;;93.72;39.33;;;;;;;;;;4916984;28;99483;-71
2021/12/06 11:34:08;;;;;;;97.05;37.70;;;;;;;;;;4916063;28;100375;-72
2021/12/06 11:36:34;;;;;;;95.00;38.60;;;;;;;;;;4916874;28;98423;-73
2021/12/06 11:39:06;;;;;;;92.15;37.28;;;;;;;;;;4919711;28;99734;-71
2021/12/06 11:41:32;;;;;;;78.53;34.72;;;;;;;;;;4916929;28;98291;-71
2021/12/06 11:44:11;;;;;;;85.55;35.25;;;;;;;;;;4917193;28;99526;-71
2021/12/06 11:46:37;;;;;;;81.28;35.72;;;;;;;;;;4916544;28;99701;-70
2021/12/06 11:49:14;;;;;;;86.38;36.85;;;;;;;;;;4916357;28;98445;-71
2021/12/06 11:51:41;;;;;;;86.57;35.00;;;;;;;;;;4917154;28;98882;-70
2021/12/06 11:54:09;;;;;;;77.25;33.92;;;;;;;;;;4916543;28;99942;-71
2021/12/06 11:56:44;;;;;;;66.57;29.42;;;;;;;;;;4916485;28;98449;-71
2021/12/06 11:59:12;;;;;;;57.40;26.88;;;;;;;;;;4916308;28;99746;-70
2021/12/06 12:01:41;;;;;;;59.22;29.02;;;;;;;;;;4919491;28;99221;-71
2021/12/06 12:04:09;;;;;;;60.92;29.98;;;;;;;;;;4916334;28;99496;-70
2021/12/06 12:06:40;;;;;;;69.90;31.75;;;;;;;;;;4916252;28;99572;-70
2021/12/06 12:09:19;;;;;;;67.85;30.17;;;;;;;;;;4916462;28;98356;-70
2021/12/06 12:12:04;;;;;;;59.97;27.70;;;;;;;;;;4916661;28;98892;-70
2021/12/06 12:14:36;;;;;;;58.45;29.02;;;;;;;;;;4915873;28;99687;-70
2021/12/06 12:17:05;;;;;;;55.67;27.00;;;;;;;;;;4916949;28;97879;-70
2021/12/06 12:19:31;;;;;;;53.47;26.48;;;;;;;;;;4916541;28;98724;-70
2021/12/06 12:21:57;;;;;;;56.92;28.38;;;;;;;;;;4916222;28;99656;-70
2021/12/06 12:24:24;;;;;;;59.22;28.65;;;;;;;;;;4918819;28;99279;-70
2021/12/06 12:27:03;;;;;;;57.58;28.88;;;;;;;;;;4915413;28;99719;-70
2021/12/06 12:29:30;;;;;;;58.42;27.77;;;;;;;;;;4916475;28;98367;-70
2021/12/06 12:32:02;;;;;;;56.53;28.05;;;;;;;;;;4915172;28;99668;-70
2021/12/06 12:34:32;;;;;;;56.08;25.90;;;;;;;;;;4915872;28;99454;-70
2021/12/06 12:36:58;;;;;;;56.88;26.63;;;;;;;;;;4916281;28;98382;-70
2021/12/06 12:39:25;;;;;;;52.45;26.70;;;;;;;;;;4915642;28;99613;-70
2021/12/06 12:41:54;;;;;;;54.67;26.08;;;;;;;;;;4916311;28;99007;-70
2021/12/06 12:44:21;;;;;;;54.08;25.48;;;;;;;;;;4915917;28;98420;-70
2021/12/06 12:46:48;;;;;;;55.05;27.27;;;;;;;;;;4919079;28;100164;-70
2021/12/06 12:49:17;;;;;;;56.17;27.52;;;;;;;;;;4915539;28;98995;-70
2021/12/06 12:51:46;;;;;;;46.28;23.20;;;;;;;;;;4915364;28;100436;-70
2021/12/06 12:54:18;;;;;;;47.90;24.05;;;;;;;;;;4915367;28;99648;-70
2021/12/06 12:56:50;;;;;;;46.92;23.67;;;;;;;;;;4915959;28;98434;-70
2021/12/06 12:59:16;;;;;;;;;;;;;;;;;;4916273;28;99427;-70
2021/12/06 13:01:45;;;;;;;47.95;24.33;;;;;;;;;;4915209;28;128524;-70
2021/12/06 13:04:12;;;;;;;48.83;24.65;;;;;;;;;;4915913;28;98236;-71
2021/12/06 13:06:39;;;;;;;49.42;23.40;;;;;;;;;;4916036;28;99631;-70
2021/12/06 13:09:18;;;;;;;39.40;22.52;;;;;;;;;;4918511;28;99514;-70
2021/12/06 13:11:46;;;;;;;44.50;22.08;;;;;;;;;;4915639;28;99023;-71
2021/12/06 13:14:29;;;;;;;42.03;22.90;;;;;;;;;;4914494;28;100434;-72
2021/12/06 13:17:00;;;;;;;46.47;23.65;;;;;;;;;;4915240;28;98339;-69
2021/12/06 13:19:48;;;;;;;44.55;21.13;;;;;;;;;;4915687;28;99468;-71
2021/12/06 13:22:16;;;;;;;42.42;21.17;;;;;;;;;;4915110;28;99834;-71
2021/12/06 13:24:43;;;;;;;46.83;21.95;;;;;;;;;;4915551;28;98399;-71
2021/12/06 13:27:18;;;;;;;49.08;22.63;;;;;;;;;;4915267;28;99963;-70
2021/12/06 13:29:49;;;;;;;57.22;24.60;;;;;;;;;;4915126;28;99668;-70
2021/12/06 13:32:28;;;;;;;53.60;22.00;;;;;;;;;;4918746;28;97759;-71
2021/12/06 13:34:55;;;;;;;56.60;24.63;;;;;;;;;;4915081;28;99358;-71
2021/12/06 13:37:25;;;;;;;51.58;22.35;;;;;;;;;;4915288;28;98512;-71
2021/12/06 13:39:52;;;;;;;60.28;24.50;;;;;;;;;;4914326;28;100139;-71
2021/12/06 13:42:38;;;;;;;50.70;24.00;;;;;;;;;;4914725;28;99334;-71
2021/12/06 13:45:06;;;;;;;51.80;21.75;;;;;;;;;;4915012;28;98549;-71
2021/12/06 13:47:32;;;;;;;52.28;23.98;;;;;;;;;;4915014;28;99665;-71
2021/12/06 13:50:01;;;;;;;54.47;24.13;;;;;;;;;;4914613;28;99774;-71
2021/12/06 13:52:59;;;;;;;58.80;23.75;;;;;;;;;;4917540;28;98517;-71
2021/12/06 13:55:30;;;;;;;62.70;25.15;;;;;;;;;;4861923;28;99874;-71
2021/12/06 13:58:00;;;;;;;61.57;25.77;;;;;;;;;;4903079;28;97782;-70
2021/12/06 14:00:29;;;;;;;50.33;23.27;;;;;;;;;;4895768;28;99098;-71
2021/12/06 14:03:01;;;;;;;45.95;23.48;;;;;;;;;;4895011;28;99287;-71
2021/12/06 14:05:29;;;;;;;54.45;25.23;;;;;;;;;;4894878;28;99177;-71
2021/12/06 14:07:55;;;;;;;44.63;23.30;;;;;;;;;;4895640;28;100487;-71
2021/12/06 14:10:22;;;;;;;41.72;21.88;;;;;;;;;;4894876;28;99837;-70
2021/12/06 14:12:48;;;;;;;39.25;19.98;;;;;;;;;;4895117;28;98454;-71
2021/12/06 14:15:35;;;;;;;31.90;18.10;;;;;;;;;;4897964;28;99504;-71
2021/12/06 14:18:02;;;;;;;32.33;18.52;;;;;;;;;;4895308;28;98494;-71
2021/12/06 14:20:28;;;;;;;36.05;19.77;;;;;;;;;;4895451;28;99903;-71
2021/12/06 14:22:55;;;;;;;32.75;18.05;;;;;;;;;;4894830;28;98958;-71
2021/12/06 14:25:22;;;;;;;36.55;20.25;;;;;;;;;;4895364;28;98421;-71
2021/12/06 14:27:49;;;;;;;28.95;17.92;;;;;;;;;;4894511;28;99668;-71
2021/12/06 14:30:17;;;;;;;29.83;17.80;;;;;;;;;;4894269;28;100596;-71